Time;durP1;ratioP1;P1;durP2;ratioP2;P2;SDS_P1;SDS_P2;PMS_P1;PMS_P2;Temp;Humidity;BMP_temperature;BMP_pressure;BME280_temperature;BME280_humidity;BME280_pressure;Samples;Min_cycle;Max_cycle;Signal;HPM_P1;HPM_P2
2023/03/12 00:04:37;;;;;;;5.85;2.97;;;;;;;;;;10374266;28;20762;-70
2023/03/12 00:09:37;;;;;;;7.97;4.00;;;;;;;;;;10357766;28;20041;-70
2023/03/12 00:14:38;;;;;;;10.32;4.53;;;;;;;;;;10354338;28;20095;-70
2023/03/12 00:19:38;;;;;;;8.45;4.10;;;;;;;;;;10378677;28;20042;-69
2023/03/12 00:24:38;;;;;;;8.90;4.37;;;;;;;;;;10384579;28;20022;-70
2023/03/12 00:29:38;;;;;;;7.13;4.97;;;;;;;;;;10385318;28;20370;-72
2023/03/12 00:34:39;;;;;;;16.33;4.53;;;;;;;;;;10379993;28;20615;-70
2023/03/12 00:39:39;;;;;;;7.90;5.30;;;;;;;;;;10343277;28;20038;-70
2023/03/12 00:44:39;;;;;;;9.73;5.97;;;;;;;;;;10383838;28;20423;-70
2023/03/12 00:49:40;;;;;;;13.30;4.97;;;;;;;;;;10383905;28;20040;-71
2023/03/12 00:54:40;;;;;;;6.20;5.15;;;;;;;;;;10383696;28;20822;-70
2023/03/12 00:59:41;;;;;;;7.75;4.70;;;;;;;;;;10383518;28;20389;-71
2023/03/12 01:04:42;;;;;;;9.05;4.80;;;;;;;;;;10383177;28;20025;-70
2023/03/12 01:09:42;;;;;;;8.02;5.53;;;;;;;;;;10383473;28;20461;-70
2023/03/12 01:14:42;;;;;;;10.48;6.03;;;;;;;;;;10382816;28;20374;-71
2023/03/12 01:19:42;;;;;;;6.85;4.72;;;;;;;;;;10382611;28;20481;-70
2023/03/12 01:24:43;;;;;;;8.00;5.10;;;;;;;;;;10381105;28;20103;-70
2023/03/12 01:29:43;;;;;;;7.45;4.85;;;;;;;;;;10382044;28;20025;-71
2023/03/12 01:34:43;;;;;;;8.48;5.28;;;;;;;;;;10381688;28;20412;-70
2023/03/12 01:39:43;;;;;;;13.60;4.43;;;;;;;;;;10381894;28;20113;-70
2023/03/12 01:44:58;;;;;;;10.13;5.68;;;;;;;;;;10381741;28;20554;-70
2023/03/12 01:49:59;;;;;;;9.00;5.40;;;;;;;;;;10381164;28;20036;-70
2023/03/12 01:55:08;;;;;;;12.88;4.95;;;;;;;;;;10380550;28;20048;-71
2023/03/12 02:00:13;;;;;;;9.45;4.72;;;;;;;;;;10384087;28;20044;-70
2023/03/12 02:05:17;;;;;;;9.95;5.35;;;;;;;;;;10380830;28;20036;-70
2023/03/12 02:10:18;;;;;;;6.55;4.50;;;;;;;;;;10379989;28;20029;-71
2023/03/12 02:15:18;;;;;;;8.77;5.25;;;;;;;;;;10379703;28;20136;-71
2023/03/12 02:20:18;;;;;;;7.50;4.53;;;;;;;;;;10380766;28;20060;-70
2023/03/12 02:25:24;;;;;;;6.05;4.35;;;;;;;;;;10379912;28;20096;-71
2023/03/12 02:30:27;;;;;;;5.90;4.38;;;;;;;;;;10395546;28;20037;-70
2023/03/12 02:35:27;;;;;;;9.05;4.03;;;;;;;;;;10391921;28;20033;-70
2023/03/12 02:40:27;;;;;;;9.03;5.13;;;;;;;;;;10379604;28;20500;-70
2023/03/12 02:45:28;;;;;;;14.45;4.90;;;;;;;;;;10379304;28;20083;-70
2023/03/12 02:50:29;;;;;;;6.68;4.25;;;;;;;;;;10379946;28;20101;-70
2023/03/12 02:55:29;;;;;;;5.70;4.10;;;;;;;;;;10394005;28;20036;-71
2023/03/12 03:00:31;;;;;;;6.00;4.25;;;;;;;;;;10379576;28;20275;-70
2023/03/12 03:05:31;;;;;;;6.75;4.63;;;;;;;;;;10379557;28;20025;-70
2023/03/12 03:10:31;;;;;;;7.22;4.47;;;;;;;;;;10378783;28;20539;-70
2023/03/12 03:15:31;;;;;;;7.87;4.87;;;;;;;;;;10379130;28;20048;-69
2023/03/12 03:20:32;;;;;;;5.07;3.58;;;;;;;;;;10362762;28;20416;-70
2023/03/12 03:25:32;;;;;;;3.97;2.80;;;;;;;;;;10379033;28;20029;-70
2023/03/12 03:30:33;;;;;;;3.80;2.33;;;;;;;;;;10378669;28;20029;-70
2023/03/12 03:35:33;;;;;;;4.07;2.80;;;;;;;;;;10378895;28;20434;-70
2023/03/12 03:40:33;;;;;;;6.33;3.33;;;;;;;;;;10378101;28;20037;-70
2023/03/12 03:45:34;;;;;;;9.43;3.50;;;;;;;;;;10378442;28;20287;-70
2023/03/12 03:50:35;;;;;;;4.50;3.23;;;;;;;;;;10379124;28;20036;-72
2023/03/12 03:55:36;;;;;;;3.63;2.80;;;;;;;;;;10380882;28;20033;-69
2023/03/12 04:00:37;;;;;;;5.88;3.42;;;;;;;;;;10385981;28;20512;-69
2023/03/12 04:05:37;;;;;;;4.57;2.50;;;;;;;;;;10397817;28;20036;-70
2023/03/12 04:10:38;;;;;;;3.67;2.63;;;;;;;;;;10385056;28;20036;-69
2023/03/12 04:15:44;;;;;;;3.85;2.30;;;;;;;;;;10385125;28;20037;-70
2023/03/12 04:20:44;;;;;;;3.40;2.13;;;;;;;;;;10384910;28;20037;-70
2023/03/12 04:25:44;;;;;;;2.83;2.07;;;;;;;;;;10384157;28;20037;-70
2023/03/12 04:30:53;;;;;;;10.45;2.58;;;;;;;;;;10384964;28;20044;-70
2023/03/12 04:35:53;;;;;;;6.22;2.63;;;;;;;;;;10384236;28;20033;-70
2023/03/12 04:40:57;;;;;;;3.90;2.20;;;;;;;;;;10384170;28;20378;-70
2023/03/12 04:45:58;;;;;;;3.42;1.80;;;;;;;;;;10384011;28;20681;-70
2023/03/12 04:50:58;;;;;;;6.07;2.92;;;;;;;;;;10384104;28;20039;-71
2023/03/12 04:55:59;;;;;;;5.47;2.63;;;;;;;;;;10384282;28;20032;-71
2023/03/12 05:00:59;;;;;;;4.57;2.83;;;;;;;;;;10382854;28;20084;-71
2023/03/12 05:05:59;;;;;;;9.35;2.58;;;;;;;;;;10353433;28;20033;-71
2023/03/12 05:11:00;;;;;;;3.90;1.85;;;;;;;;;;10383530;28;20050;-70
2023/03/12 05:16:00;;;;;;;4.57;3.60;;;;;;;;;;10383867;28;20037;-71
2023/03/12 05:21:01;;;;;;;4.07;2.50;;;;;;;;;;10383049;28;20060;-70
2023/03/12 05:26:02;;;;;;;5.85;2.42;;;;;;;;;;10382544;28;20030;-70
2023/03/12 05:31:07;;;;;;;3.93;2.33;;;;;;;;;;10382363;28;20553;-70
2023/03/12 05:36:08;;;;;;;3.40;2.25;;;;;;;;;;10381198;28;20032;-70
2023/03/12 05:41:12;;;;;;;3.08;1.90;;;;;;;;;;10384657;28;20036;-70
2023/03/12 05:46:12;;;;;;;4.97;2.00;;;;;;;;;;10379537;28;20057;-70
2023/03/12 05:51:13;;;;;;;6.68;3.20;;;;;;;;;;10380158;28;20465;-70
2023/03/12 05:56:14;;;;;;;2.63;1.83;;;;;;;;;;10374557;28;20036;-71
2023/03/12 06:01:19;;;;;;;3.70;2.03;;;;;;;;;;10358672;28;20045;-71
2023/03/12 06:06:19;;;;;;;2.10;1.67;;;;;;;;;;10357141;28;20038;-70
2023/03/12 06:11:19;;;;;;;4.68;2.58;;;;;;;;;;10357757;28;20037;-70
2023/03/12 06:16:21;;;;;;;3.58;1.85;;;;;;;;;;10363948;28;20590;-71
2023/03/12 06:21:24;;;;;;;4.88;2.35;;;;;;;;;;10356633;28;20040;-71
2023/03/12 06:26:24;;;;;;;5.18;2.15;;;;;;;;;;10353890;28;20485;-70
2023/03/12 06:31:24;;;;;;;3.17;1.90;;;;;;;;;;10355718;28;20045;-71
2023/03/12 06:36:25;;;;;;;7.25;2.42;;;;;;;;;;10370995;28;20099;-71
2023/03/12 06:41:25;;;;;;;3.38;2.53;;;;;;;;;;10354848;28;20042;-70
2023/03/12 06:46:25;;;;;;;2.87;2.10;;;;;;;;;;10365684;28;20038;-71
2023/03/12 06:51:26;;;;;;;3.83;2.40;;;;;;;;;;10357457;28;20824;-70
2023/03/12 06:56:26;;;;;;;11.98;3.05;;;;;;;;;;10362240;28;20062;-70
2023/03/12 07:01:27;;;;;;;4.85;2.40;;;;;;;;;;10362495;28;20029;-70
2023/03/12 07:06:27;;;;;;;7.20;2.47;;;;;;;;;;10371595;28;20499;-69
2023/03/12 07:11:27;;;;;;;4.13;2.15;;;;;;;;;;10366165;28;20499;-69
2023/03/12 07:16:27;;;;;;;6.75;3.42;;;;;;;;;;10356152;28;20365;-69
2023/03/12 07:21:28;;;;;;;2.60;1.90;;;;;;;;;;10365714;28;20412;-69
2023/03/12 07:26:28;;;;;;;2.97;1.92;;;;;;;;;;10358970;28;20053;-69
2023/03/12 07:31:28;;;;;;;6.27;2.33;;;;;;;;;;10367269;28;20045;-70
2023/03/12 07:36:29;;;;;;;6.00;2.75;;;;;;;;;;10371830;28;20033;-70
2023/03/12 07:41:29;;;;;;;5.60;1.88;;;;;;;;;;10382023;28;20045;-70
2023/03/12 07:46:29;;;;;;;4.03;2.23;;;;;;;;;;10389909;28;20068;-71
2023/03/12 07:51:30;;;;;;;6.47;2.05;;;;;;;;;;10372854;28;20041;-72
2023/03/12 07:56:30;;;;;;;4.50;2.13;;;;;;;;;;10370558;28;20400;-72
2023/03/12 08:01:31;;;;;;;3.05;1.40;;;;;;;;;;10371605;28;20279;-73
2023/03/12 08:06:31;;;;;;;7.95;2.55;;;;;;;;;;10372039;28;20543;-74
2023/03/12 08:11:33;;;;;;;8.25;1.80;;;;;;;;;;10378289;28;20124;-73
2023/03/12 08:16:33;;;;;;;3.00;1.90;;;;;;;;;;10369787;28;20119;-72
2023/03/12 08:21:33;;;;;;;2.50;1.50;;;;;;;;;;10371568;28;20346;-73
2023/03/12 08:26:33;;;;;;;3.88;1.65;;;;;;;;;;10372211;28;20488;-72
2023/03/12 08:31:34;;;;;;;3.50;1.90;;;;;;;;;;10368688;28;20103;-71
2023/03/12 08:36:37;;;;;;;3.75;2.30;;;;;;;;;;10372006;28;20726;-78
2023/03/12 08:41:38;;;;;;;4.32;2.10;;;;;;;;;;10372716;28;20120;-72
2023/03/12 08:46:38;;;;;;;3.47;2.20;;;;;;;;;;10366045;28;20042;-72
2023/03/12 08:51:39;;;;;;;8.50;1.73;;;;;;;;;;10373566;28;20208;-72
2023/03/12 08:56:42;;;;;;;2.05;1.63;;;;;;;;;;10367649;28;20463;-72
2023/03/12 09:01:43;;;;;;;4.40;2.30;;;;;;;;;;10363382;28;20033;-72
2023/03/12 09:06:43;;;;;;;5.30;2.30;;;;;;;;;;10368247;28;20736;-72
2023/03/12 09:11:44;;;;;;;4.38;1.65;;;;;;;;;;10364919;28;20030;-72
2023/03/12 09:16:44;;;;;;;5.00;2.40;;;;;;;;;;10365712;28;20132;-72
2023/03/12 09:21:44;;;;;;;8.77;2.40;;;;;;;;;;10364394;28;20033;-72
2023/03/12 09:26:46;;;;;;;4.18;3.05;;;;;;;;;;10368485;28;20727;-72
2023/03/12 09:31:46;;;;;;;3.40;2.35;;;;;;;;;;10369291;28;20047;-71
2023/03/12 09:36:46;;;;;;;7.88;2.38;;;;;;;;;;10367564;28;20608;-71
2023/03/12 09:41:47;;;;;;;4.30;1.98;;;;;;;;;;10368268;28;20045;-71
2023/03/12 09:46:50;;;;;;;7.70;3.38;;;;;;;;;;10366750;28;20037;-71
2023/03/12 09:51:52;;;;;;;3.97;1.95;;;;;;;;;;10365620;28;20524;-71
2023/03/12 09:56:54;;;;;;;8.95;2.60;;;;;;;;;;10370326;28;20025;-71
2023/03/12 10:01:59;;;;;;;2.80;2.05;;;;;;;;;;10370877;28;20511;-71
2023/03/12 10:07:08;;;;;;;6.22;2.35;;;;;;;;;;10370053;28;20037;-71
2023/03/12 10:12:17;;;;;;;4.80;2.05;;;;;;;;;;10366569;28;20103;-70
2023/03/12 10:17:37;;;;;;;6.30;2.85;;;;;;;;;;10370017;28;20451;-71
2023/03/12 10:22:56;;;;;;;3.67;2.47;;;;;;;;;;10362458;28;20629;-71
2023/03/12 10:27:59;;;;;;;9.65;2.33;;;;;;;;;;10365425;28;20041;-72
2023/03/12 10:33:03;;;;;;;3.15;2.30;;;;;;;;;;10367829;28;20028;-71
2023/03/12 10:38:04;;;;;;;3.92;1.80;;;;;;;;;;10367594;28;20040;-71
2023/03/12 10:43:05;;;;;;;2.88;1.38;;;;;;;;;;10368110;28;20095;-71
2023/03/12 10:48:10;;;;;;;4.45;1.92;;;;;;;;;;10365828;28;20436;-72
2023/03/12 10:53:12;;;;;;;10.13;1.63;;;;;;;;;;10368291;28;20769;-72
2023/03/12 10:58:25;;;;;;;3.00;1.52;;;;;;;;;;10364840;28;20033;-71
2023/03/12 11:03:26;;;;;;;2.20;1.58;;;;;;;;;;10362456;28;20033;-74
2023/03/12 11:08:30;;;;;;;3.25;1.30;;;;;;;;;;10359181;28;20037;-72
2023/03/12 11:13:30;;;;;;;2.53;1.27;;;;;;;;;;10362170;28;20034;-70
2023/03/12 11:18:32;;;;;;;3.58;1.30;;;;;;;;;;10360511;28;20733;-74
2023/03/12 11:23:33;;;;;;;2.45;1.25;;;;;;;;;;10364486;28;20125;-69
2023/03/12 11:28:35;;;;;;;3.55;1.30;;;;;;;;;;10364418;28;20037;-69
2023/03/12 11:33:35;;;;;;;3.70;1.20;;;;;;;;;;10367192;28;20052;-69
2023/03/12 11:38:41;;;;;;;1.47;1.17;;;;;;;;;;10365326;28;20032;-75
2023/03/12 11:43:41;;;;;;;3.38;1.85;;;;;;;;;;10380389;28;20034;-72
2023/03/12 11:48:41;;;;;;;3.53;1.92;;;;;;;;;;10363986;28;20087;-70
2023/03/12 11:53:48;;;;;;;2.90;1.38;;;;;;;;;;10364669;28;20659;-72
2023/03/12 11:58:51;;;;;;;2.17;1.80;;;;;;;;;;10377998;28;20072;-76
2023/03/12 12:03:51;;;;;;;2.83;1.85;;;;;;;;;;10378058;28;20044;-74
2023/03/12 12:09:07;;;;;;;6.45;3.38;;;;;;;;;;10366886;28;20463;-74
2023/03/12 12:14:10;;;;;;;4.18;1.88;;;;;;;;;;10369074;28;20033;-74
2023/03/12 12:19:20;;;;;;;3.63;2.33;;;;;;;;;;10376804;28;20722;-75
2023/03/12 12:24:20;;;;;;;3.83;2.83;;;;;;;;;;10379091;28;20040;-75
2023/03/12 12:29:23;;;;;;;2.83;2.58;;;;;;;;;;10377997;28;20671;-69
2023/03/12 12:34:48;;;;;;;3.72;2.25;;;;;;;;;;10377088;28;20388;-75
2023/03/12 12:39:52;;;;;;;4.05;2.53;;;;;;;;;;10378920;28;20602;-74
2023/03/12 12:44:53;;;;;;;5.88;2.85;;;;;;;;;;10378696;28;20037;-78
2023/03/12 12:49:58;;;;;;;4.05;2.45;;;;;;;;;;10378399;28;20080;-72
2023/03/12 12:55:13;;;;;;;4.43;2.80;;;;;;;;;;10392713;28;20734;-74
2023/03/12 13:00:16;;;;;;;4.00;2.95;;;;;;;;;;10377499;28;20422;-74
2023/03/12 13:05:27;;;;;;;2.72;2.10;;;;;;;;;;10378554;28;20120;-73
2023/03/12 13:10:31;;;;;;;3.10;2.15;;;;;;;;;;10377901;28;20510;-76
2023/03/12 13:15:33;;;;;;;4.00;2.13;;;;;;;;;;10377317;28;20448;-69
2023/03/12 13:20:33;;;;;;;2.72;2.20;;;;;;;;;;10376217;28;20022;-69
2023/03/12 13:25:48;;;;;;;3.60;2.40;;;;;;;;;;10377151;28;20063;-70
2023/03/12 13:30:50;;;;;;;2.72;2.40;;;;;;;;;;10374952;28;20073;-69
2023/03/12 13:36:27;;;;;;;2.53;2.22;;;;;;;;;;10376090;28;20039;-69
2023/03/12 13:41:31;;;;;;;3.33;2.08;;;;;;;;;;10325349;28;20041;-71
2023/03/12 13:46:37;;;;;;;5.30;3.70;;;;;;;;;;10376372;28;20022;-69
2023/03/12 13:51:45;;;;;;;5.05;2.55;;;;;;;;;;10376261;28;20765;-69
2023/03/12 13:56:53;;;;;;;3.65;2.47;;;;;;;;;;10375450;28;20067;-72
2023/03/12 14:01:56;;;;;;;2.55;2.33;;;;;;;;;;10390998;28;20042;-69
2023/03/12 14:07:14;;;;;;;3.75;2.20;;;;;;;;;;10375578;28;20104;-69
2023/03/12 14:12:15;;;;;;;;;;;;;;;;;;10375395;28;20126;-69
2023/03/12 14:17:17;;;;;;;2.67;2.08;;;;;;;;;;10388522;28;19916;-69
2023/03/12 14:22:21;;;;;;;3.42;2.10;;;;;;;;;;10390285;28;20515;-69
2023/03/12 14:27:26;;;;;;;4.75;2.40;;;;;;;;;;10374600;28;20118;-69
2023/03/12 14:32:28;;;;;;;7.22;2.47;;;;;;;;;;10373429;28;20041;-69
2023/03/12 14:37:31;;;;;;;3.60;2.60;;;;;;;;;;10373981;28;20746;-70
2023/03/12 14:42:33;;;;;;;3.70;2.38;;;;;;;;;;10373043;28;20034;-70
2023/03/12 14:47:40;;;;;;;3.97;2.67;;;;;;;;;;10373420;28;20116;-70
2023/03/12 14:52:40;;;;;;;4.30;2.83;;;;;;;;;;10373274;28;20040;-70
2023/03/12 14:57:41;;;;;;;4.35;2.38;;;;;;;;;;10380764;28;20044;-70
2023/03/12 15:02:42;;;;;;;5.55;2.92;;;;;;;;;;10372203;28;20091;-70
2023/03/12 15:07:43;;;;;;;3.92;2.97;;;;;;;;;;10382185;28;20508;-70
2023/03/12 15:12:44;;;;;;;4.38;2.75;;;;;;;;;;10371778;28;20025;-71
2023/03/12 15:17:44;;;;;;;3.38;2.47;;;;;;;;;;10371870;28;20149;-71
2023/03/12 15:22:44;;;;;;;4.10;2.30;;;;;;;;;;10388440;28;20490;-71
2023/03/12 15:27:45;;;;;;;3.53;2.50;;;;;;;;;;10370870;28;20337;-71
2023/03/12 15:33:02;;;;;;;4.97;2.50;;;;;;;;;;10372480;28;20401;-71
2023/03/12 15:38:04;;;;;;;5.85;2.90;;;;;;;;;;10374133;28;20041;-79
2023/03/12 15:43:06;;;;;;;4.38;2.58;;;;;;;;;;10387098;28;20510;-73
2023/03/12 15:48:20;;;;;;;6.88;2.90;;;;;;;;;;10370862;28;20523;-69
2023/03/12 15:53:21;;;;;;;9.07;3.83;;;;;;;;;;10377975;28;20045;-69
2023/03/12 15:58:30;;;;;;;4.45;2.60;;;;;;;;;;10394568;28;20037;-67
2023/03/12 16:03:30;;;;;;;5.47;2.90;;;;;;;;;;10389558;28;20029;-67
2023/03/12 16:08:39;;;;;;;12.57;3.75;;;;;;;;;;10378600;28;20512;-67
2023/03/12 16:13:41;;;;;;;4.05;2.75;;;;;;;;;;10378477;28;20439;-69
2023/03/12 16:18:41;;;;;;;10.10;3.28;;;;;;;;;;10394349;28;20088;-68
2023/03/12 16:23:42;;;;;;;4.45;2.60;;;;;;;;;;10375258;28;20032;-68
2023/03/12 16:28:42;;;;;;;8.50;4.03;;;;;;;;;;10374093;28;20048;-68
2023/03/12 16:33:43;;;;;;;9.10;3.00;;;;;;;;;;10374308;28;20099;-68
2023/03/12 16:38:44;;;;;;;4.75;2.65;;;;;;;;;;10373725;28;20709;-68
2023/03/12 16:43:47;;;;;;;4.55;3.15;;;;;;;;;;10372588;28;20115;-67
2023/03/12 16:48:49;;;;;;;5.82;2.72;;;;;;;;;;10373828;28;20400;-67
2023/03/12 16:53:50;;;;;;;3.97;2.63;;;;;;;;;;10376530;28;20116;-68
2023/03/12 16:58:51;;;;;;;4.63;3.27;;;;;;;;;;10378397;28;20075;-67
2023/03/12 17:03:52;;;;;;;7.07;3.58;;;;;;;;;;10374626;28;20828;-67
2023/03/12 17:08:53;;;;;;;7.82;3.05;;;;;;;;;;10389672;28;20032;-70
2023/03/12 17:13:58;;;;;;;3.78;2.70;;;;;;;;;;10375856;28;20416;-68
2023/03/12 17:18:59;;;;;;;4.07;3.33;;;;;;;;;;10372013;28;20091;-69
2023/03/12 17:23:59;;;;;;;5.10;3.22;;;;;;;;;;10377249;28;20037;-70
2023/03/12 17:28:59;;;;;;;7.22;3.10;;;;;;;;;;10375051;28;20088;-70
2023/03/12 17:34:02;;;;;;;7.23;4.53;;;;;;;;;;10364568;28;20034;-70
2023/03/12 17:39:03;;;;;;;5.18;3.42;;;;;;;;;;10374029;28;20049;-76
2023/03/12 17:44:05;;;;;;;4.15;3.38;;;;;;;;;;10366139;28;20567;-73
2023/03/12 17:49:06;;;;;;;11.98;3.40;;;;;;;;;;10369155;28;20041;-70
2023/03/12 17:54:08;;;;;;;5.15;2.97;;;;;;;;;;10367133;28;20404;-69
2023/03/12 17:59:08;;;;;;;5.32;4.00;;;;;;;;;;10382380;28;20071;-70
2023/03/12 18:04:09;;;;;;;5.90;4.25;;;;;;;;;;10386141;28;20467;-79
2023/03/12 18:09:09;;;;;;;5.33;3.13;;;;;;;;;;10370526;28;20037;-75
2023/03/12 18:14:09;;;;;;;9.45;3.58;;;;;;;;;;10367487;28;20814;-69
2023/03/12 18:19:10;;;;;;;7.27;3.90;;;;;;;;;;10364002;28;20029;-69
2023/03/12 18:24:10;;;;;;;9.10;3.97;;;;;;;;;;10364460;28;20043;-68
2023/03/12 18:29:11;;;;;;;8.27;4.70;;;;;;;;;;10367210;28;20042;-68
2023/03/12 18:34:11;;;;;;;6.20;4.18;;;;;;;;;;10368631;28;20021;-70
2023/03/12 18:39:11;;;;;;;8.50;4.77;;;;;;;;;;10370232;28;20068;-69
2023/03/12 18:44:12;;;;;;;6.03;4.20;;;;;;;;;;10366497;28;20052;-70
2023/03/12 18:49:12;;;;;;;6.97;4.50;;;;;;;;;;10367829;28;20714;-70
2023/03/12 18:54:13;;;;;;;8.77;4.90;;;;;;;;;;10365702;28;20034;-70
2023/03/12 18:59:14;;;;;;;10.30;5.25;;;;;;;;;;10365799;28;20752;-74
2023/03/12 19:04:15;;;;;;;8.00;5.05;;;;;;;;;;10363701;28;20037;-72
2023/03/12 19:09:15;;;;;;;6.57;5.45;;;;;;;;;;10375827;28;20041;-73
2023/03/12 19:14:16;;;;;;;8.53;5.57;;;;;;;;;;10364912;28;20029;-72
2023/03/12 19:19:16;;;;;;;9.52;5.72;;;;;;;;;;10362738;28;20842;-71
2023/03/12 19:24:16;;;;;;;7.30;5.63;;;;;;;;;;10363248;28;20033;-71
2023/03/12 19:29:17;;;;;;;9.07;5.03;;;;;;;;;;10362805;28;20476;-71
2023/03/12 19:34:17;;;;;;;9.43;5.50;;;;;;;;;;10367057;28;20057;-71
2023/03/12 19:39:17;;;;;;;9.13;6.07;;;;;;;;;;10363802;28;20037;-70
2023/03/12 19:44:17;;;;;;;8.60;5.75;;;;;;;;;;10365278;28;20041;-72
2023/03/12 19:49:18;;;;;;;10.98;6.05;;;;;;;;;;10367483;28;20045;-71
2023/03/12 19:54:18;;;;;;;12.17;5.47;;;;;;;;;;10365179;28;20423;-69
2023/03/12 19:59:19;;;;;;;9.95;5.63;;;;;;;;;;10378991;28;20037;-69
2023/03/12 20:04:19;;;;;;;10.10;5.17;;;;;;;;;;10362349;28;20045;-68
2023/03/12 20:09:19;;;;;;;9.90;5.53;;;;;;;;;;10364905;28;20936;-69
2023/03/12 20:14:20;;;;;;;9.73;5.05;;;;;;;;;;10364373;28;20018;-69
2023/03/12 20:19:20;;;;;;;10.10;5.10;;;;;;;;;;10364079;28;20560;-69
2023/03/12 20:24:20;;;;;;;7.05;4.45;;;;;;;;;;10361472;28;20609;-70
2023/03/12 20:29:20;;;;;;;6.07;4.63;;;;;;;;;;10358466;28;20488;-70
2023/03/12 20:34:21;;;;;;;10.87;5.60;;;;;;;;;;10365183;28;20055;-70
2023/03/12 20:39:21;;;;;;;10.70;5.30;;;;;;;;;;10369641;28;20049;-70
2023/03/12 20:44:21;;;;;;;10.50;5.97;;;;;;;;;;10366676;28;20790;-70
2023/03/12 20:49:22;;;;;;;9.98;5.75;;;;;;;;;;10368824;28;20851;-70
2023/03/12 20:54:22;;;;;;;8.57;6.03;;;;;;;;;;10371686;28;20030;-71
2023/03/12 20:59:22;;;;;;;9.35;6.22;;;;;;;;;;10370198;28;20851;-72
2023/03/12 21:04:22;;;;;;;9.70;5.68;;;;;;;;;;10368758;28;20041;-71
2023/03/12 21:09:23;;;;;;;7.82;4.78;;;;;;;;;;10372147;28;20389;-71
2023/03/12 21:14:23;;;;;;;10.13;6.27;;;;;;;;;;10387297;28;20099;-71
2023/03/12 21:19:25;;;;;;;13.63;7.07;;;;;;;;;;10384680;28;20045;-70
2023/03/12 21:24:26;;;;;;;9.00;5.90;;;;;;;;;;10365909;28;20041;-70
2023/03/12 21:29:26;;;;;;;10.67;6.07;;;;;;;;;;10368921;28;20884;-71
2023/03/12 21:34:27;;;;;;;13.05;6.50;;;;;;;;;;10369741;28;20040;-71
2023/03/12 21:39:28;;;;;;;10.65;6.35;;;;;;;;;;10374604;28;20464;-70
2023/03/12 21:44:28;;;;;;;10.35;5.97;;;;;;;;;;10371540;28;20090;-70
2023/03/12 21:49:28;;;;;;;12.05;5.95;;;;;;;;;;10370563;28;20083;-71
2023/03/12 21:54:32;;;;;;;9.90;5.85;;;;;;;;;;10372381;28;20444;-70
2023/03/12 21:59:32;;;;;;;10.15;7.35;;;;;;;;;;10371021;28;20037;-71
2023/03/12 22:04:32;;;;;;;9.57;6.73;;;;;;;;;;10375038;28;20044;-72
2023/03/12 22:09:33;;;;;;;10.43;6.63;;;;;;;;;;10374486;28;20060;-69
2023/03/12 22:14:33;;;;;;;11.97;6.43;;;;;;;;;;10375169;28;20057;-69
2023/03/12 22:19:33;;;;;;;9.65;6.35;;;;;;;;;;10374392;28;20655;-69
2023/03/12 22:24:34;;;;;;;10.20;5.70;;;;;;;;;;10374372;28;20425;-69
2023/03/12 22:29:34;;;;;;;8.80;5.57;;;;;;;;;;10375106;28;20034;-70
2023/03/12 22:34:34;;;;;;;11.07;6.23;;;;;;;;;;10374352;28;20037;-70
2023/03/12 22:39:35;;;;;;;9.38;5.93;;;;;;;;;;10373706;28;20459;-70
2023/03/12 22:44:41;;;;;;;8.35;6.05;;;;;;;;;;10374492;28;20045;-70
2023/03/12 22:49:41;;;;;;;13.18;6.68;;;;;;;;;;10372108;28;20036;-70
2023/03/12 22:54:42;;;;;;;11.33;5.07;;;;;;;;;;10374606;28;20029;-70
2023/03/12 22:59:42;;;;;;;13.52;7.03;;;;;;;;;;10389593;28;20681;-70
2023/03/12 23:04:42;;;;;;;10.98;6.43;;;;;;;;;;10373163;28;20416;-69
2023/03/12 23:09:45;;;;;;;18.15;8.15;;;;;;;;;;10373954;28;20660;-70
2023/03/12 23:14:46;;;;;;;8.00;5.22;;;;;;;;;;10373339;28;20052;-71
2023/03/12 23:19:46;;;;;;;10.50;6.37;;;;;;;;;;10372790;28;20033;-71
2023/03/12 23:24:46;;;;;;;11.00;6.05;;;;;;;;;;10373861;28;20265;-71
2023/03/12 23:29:47;;;;;;;10.80;6.13;;;;;;;;;;10373349;28;20030;-71
2023/03/12 23:34:47;;;;;;;11.27;6.75;;;;;;;;;;10370129;28;20459;-72
2023/03/12 23:39:50;;;;;;;9.50;6.82;;;;;;;;;;10373167;28;20036;-71
2023/03/12 23:44:50;;;;;;;10.02;7.28;;;;;;;;;;10372671;28;20091;-70
2023/03/12 23:49:50;;;;;;;9.10;6.15;;;;;;;;;;10372222;28;20034;-71
2023/03/12 23:54:51;;;;;;;10.67;7.07;;;;;;;;;;10372631;28;20084;-71
2023/03/12 23:59:51;;;;;;;8.90;6.40;;;;;;;;;;10373155;28;20049;-70
